createdAt,value
2022-12-24T00:03:25.258Z,96940.78
2022-12-24T00:08:27.200Z,96951.16
2022-12-24T00:13:28.958Z,96958.13
2022-12-24T00:18:31.157Z,96973.50
2022-12-24T00:23:33.134Z,96964.91
2022-12-24T00:28:35.146Z,96982.25
2022-12-24T00:33:36.950Z,96971.50
2022-12-24T00:38:39.357Z,96975.88
2022-12-24T00:43:41.186Z,96975.09
2022-12-24T00:48:43.067Z,96984.47
2022-12-24T00:53:44.901Z,96991.81
2022-12-24T00:58:46.760Z,97015.72
2022-12-24T01:03:49.362Z,97011.28
2022-12-24T01:08:51.539Z,97002.88
2022-12-24T01:13:53.423Z,97008.69
2022-12-24T01:18:55.392Z,97017.88
2022-12-24T01:23:57.280Z,97032.28
2022-12-24T01:28:59.671Z,97040.84
2022-12-24T01:34:01.530Z,97056.22
2022-12-24T01:39:04.331Z,97056.22
2022-12-24T01:44:21.499Z,97061.03
2022-12-24T01:49:23.580Z,97051.47
2022-12-24T01:54:35.595Z,97075.81
2022-12-24T01:59:39.224Z,97081.81
2022-12-24T02:04:46.781Z,97084.59
2022-12-24T02:09:53.356Z,97085.53
2022-12-24T02:14:55.516Z,97083.66
2022-12-24T02:20:12.587Z,97102.00
2022-12-24T02:25:17.344Z,97092.63
2022-12-24T02:30:34.816Z,97107.97
2022-12-24T02:35:51.438Z,97109.41
2022-12-24T02:41:27.215Z,97114.44
2022-12-24T02:46:32.335Z,97130.78
2022-12-24T02:51:34.248Z,97140.34
2022-12-24T02:57:19.081Z,97143.91
2022-12-24T03:02:46.080Z,97152.84
2022-12-24T03:08:06.471Z,97157.41
2022-12-24T03:13:16.021Z,97174.16
2022-12-24T03:18:21.165Z,97182.91
2022-12-24T03:23:23.008Z,97166.56
2022-12-24T03:28:27.799Z,97171.75
2022-12-24T03:33:29.864Z,97170.13
2022-12-24T03:38:31.928Z,97168.53
2022-12-24T03:43:33.958Z,97187.66
2022-12-24T03:48:36.661Z,97180.88
2022-12-24T03:53:38.486Z,97187.03
2022-12-24T03:58:40.389Z,97191.63
2022-12-24T04:03:42.791Z,97193.84
2022-12-24T04:08:45.016Z,97201.44
2022-12-24T04:13:47.042Z,97215.81
2022-12-24T04:18:50.034Z,97222.41
2022-12-24T04:23:51.832Z,97219.63
2022-12-24T04:28:53.796Z,97222.84
2022-12-24T04:33:55.549Z,97225.25
2022-12-24T04:38:57.391Z,97247.44
2022-12-24T04:43:59.596Z,97256.03
2022-12-24T04:49:02.331Z,97258.44
2022-12-24T04:54:04.327Z,97260.22
2022-12-24T04:59:06.207Z,97270.31
2022-12-24T05:04:09.238Z,97286.41
2022-12-24T05:09:11.085Z,97285.00
2022-12-24T05:14:12.996Z,97307.88
2022-12-24T05:19:14.836Z,97293.31
2022-12-24T05:24:35.028Z,97317.63
2022-12-24T05:29:36.936Z,97322.00
2022-12-24T05:34:39.016Z,97336.94
2022-12-24T05:39:40.849Z,97332.28
2022-12-24T05:44:42.870Z,97343.19
2022-12-24T05:49:45.247Z,97347.94
2022-12-24T05:54:47.061Z,97358.66
2022-12-24T05:59:49.399Z,97367.41
2022-12-24T06:04:51.297Z,97383.31
2022-12-24T06:09:55.846Z,97391.44
2022-12-24T06:14:57.676Z,97408.50
2022-12-24T06:19:59.533Z,97414.84
2022-12-24T06:25:01.423Z,97415.38
2022-12-24T06:30:03.963Z,97424.50
2022-12-24T06:35:06.119Z,97434.22
2022-12-24T06:40:08.617Z,97446.53
2022-12-24T06:45:10.958Z,97450.09
2022-12-24T06:50:13.449Z,97445.56
2022-12-24T06:55:15.548Z,97462.53
2022-12-24T07:00:17.845Z,97468.16
2022-12-24T07:05:19.671Z,97493.53
2022-12-24T07:10:22.075Z,97492.56
2022-12-24T07:15:25.405Z,97492.38
2022-12-24T07:20:27.270Z,97506.16
2022-12-24T07:25:29.119Z,97529.63
2022-12-24T07:30:31.189Z,97516.06
2022-12-24T07:35:33.075Z,97523.81
2022-12-24T07:40:35.427Z,97531.78
2022-12-24T07:45:37.427Z,97532.75
2022-12-24T07:50:39.235Z,97555.09
2022-12-24T07:55:41.327Z,97555.88
2022-12-24T08:00:43.308Z,97562.69
2022-12-24T08:05:45.998Z,97575.47
2022-12-24T08:10:47.803Z,97594.22
2022-12-24T08:15:49.766Z,97597.63
2022-12-24T08:20:51.891Z,97603.63
2022-12-24T08:25:54.165Z,97612.03
2022-12-24T08:30:55.977Z,97609.44
2022-12-24T08:35:58.427Z,97619.44
2022-12-24T08:41:09.571Z,97620.88
2022-12-24T08:46:11.544Z,97630.09
2022-12-24T08:51:13.532Z,97645.31
2022-12-24T08:56:15.402Z,97652.09
2022-12-24T09:01:19.997Z,97669.91
2022-12-24T09:06:22.024Z,97673.75
2022-12-24T09:11:24.440Z,97683.25
2022-12-24T09:16:30.338Z,97677.50
2022-12-24T09:21:32.254Z,97684.47
2022-12-24T09:26:39.014Z,97690.69
2022-12-24T09:31:41.079Z,97701.81
2022-12-24T09:36:42.975Z,97716.41
2022-12-24T09:42:03.472Z,97712.81
2022-12-24T09:47:19.827Z,97720.69
2022-12-24T09:52:35.855Z,97726.56
2022-12-24T09:57:41.913Z,97743.47
2022-12-24T10:02:43.802Z,97746.59
2022-12-24T10:08:14.252Z,97753.13
2022-12-24T10:13:49.016Z,97766.00
2022-12-24T10:19:02.628Z,97769.22
2022-12-24T10:24:26.302Z,97776.94
2022-12-24T10:29:32.457Z,97779.69
2022-12-24T10:34:41.899Z,97790.50
2022-12-24T10:39:46.484Z,97792.16
2022-12-24T10:44:54.927Z,97787.50
2022-12-24T10:50:28.272Z,97795.91
2022-12-24T10:55:30.156Z,97801.72
2022-12-24T11:00:36.238Z,97812.56
2022-12-24T11:05:39.460Z,97813.03
2022-12-24T11:10:45.528Z,97823.41
2022-12-24T11:15:47.507Z,97815.00
2022-12-24T11:20:52.429Z,97820.53
2022-12-24T11:25:57.202Z,97834.81
2022-12-24T11:31:04.624Z,97842.94
2022-12-24T11:36:12.359Z,97844.63
2022-12-24T11:41:14.292Z,97850.50
2022-12-24T11:46:40.777Z,97849.22
2022-12-24T11:52:21.482Z,97856.03
2022-12-24T11:57:31.982Z,97865.25
2022-12-24T12:02:38.589Z,97875.13
2022-12-24T12:07:42.509Z,97876.72
2022-12-24T12:12:59.683Z,97879.00
2022-12-24T12:18:24.031Z,97883.03
2022-12-24T12:23:33.484Z,97886.69
2022-12-24T12:29:04.148Z,97884.22
2022-12-24T12:34:23.867Z,97882.91
2022-12-24T12:39:25.729Z,97880.47
2022-12-24T12:44:45.529Z,97896.03
2022-12-24T12:50:10.076Z,97903.38
2022-12-24T12:55:35.837Z,97901.56
2022-12-24T13:00:45.320Z,97891.66
2022-12-24T13:06:02.339Z,97889.38
2022-12-24T13:11:54.045Z,97887.88
2022-12-24T13:17:18.402Z,97891.09
2022-12-24T13:22:22.095Z,97890.28
2022-12-24T13:27:27.793Z,97895.81
2022-12-24T13:32:49.956Z,97897.16
2022-12-24T13:37:52.097Z,97909.66
2022-12-24T13:43:01.199Z,97907.06
2022-12-24T13:48:19.036Z,97910.13
2022-12-24T13:53:35.281Z,97912.03
2022-12-24T13:58:41.484Z,97905.06
2022-12-24T14:03:53.549Z,97915.13
2022-12-24T14:08:58.297Z,97910.63
2022-12-24T14:14:05.951Z,97927.84
2022-12-24T14:19:22.261Z,97928.19
2022-12-24T14:24:28.068Z,97945.28
2022-12-24T14:29:36.085Z,97955.19
2022-12-24T14:34:37.918Z,97961.03
2022-12-24T14:39:44.554Z,97958.13
2022-12-24T14:45:02.577Z,97966.41
2022-12-24T14:50:31.584Z,97977.25
2022-12-24T14:55:41.287Z,97976.94
2022-12-24T15:00:43.619Z,97991.06
2022-12-24T15:05:45.976Z,98002.41
2022-12-24T15:10:52.665Z,97987.97
2022-12-24T15:15:56.297Z,97992.69
2022-12-24T15:21:04.514Z,98008.56
2022-12-24T15:26:19.604Z,98018.13
2022-12-24T15:31:24.838Z,98020.56
2022-12-24T15:36:33.287Z,98018.78
2022-12-24T15:42:01.939Z,98021.38
2022-12-24T15:47:05.282Z,98035.78
2022-12-24T15:52:11.125Z,98034.66
2022-12-24T15:57:29.805Z,98043.56
2022-12-24T16:02:45.504Z,98052.63
2022-12-24T16:08:24.361Z,98072.25
2022-12-24T16:13:31.122Z,98075.16
2022-12-24T16:18:40.255Z,98073.53
2022-12-24T16:23:48.200Z,98094.44
2022-12-24T16:28:50.933Z,98101.25
2022-12-24T16:33:54.763Z,98104.47
2022-12-24T16:39:17.041Z,98117.91
2022-12-24T16:44:19.059Z,98127.13
2022-12-24T16:49:23.127Z,98136.03
2022-12-24T16:54:25.012Z,98124.06
2022-12-24T16:59:26.832Z,98125.19
2022-12-24T17:04:31.359Z,98131.50
2022-12-24T17:09:36.067Z,98134.72
2022-12-24T17:14:42.455Z,98140.03
2022-12-24T17:19:44.411Z,98148.41
2022-12-24T17:24:46.986Z,98152.09
2022-12-24T17:29:48.925Z,98150.78
2022-12-24T17:34:50.818Z,98143.66
2022-12-24T17:39:52.750Z,98159.50
2022-12-24T17:44:54.577Z,98159.16
2022-12-24T17:49:56.305Z,98159.47
2022-12-24T17:54:58.278Z,98171.25
2022-12-24T18:00:00.854Z,98176.22
2022-12-24T18:05:04.519Z,98186.53
2022-12-24T18:10:07.103Z,98187.44
2022-12-24T18:15:09.422Z,98203.88
2022-12-24T18:20:11.705Z,98210.59
2022-12-24T18:25:13.711Z,98207.38
2022-12-24T18:30:15.706Z,98213.19
2022-12-24T18:35:17.722Z,98214.81
2022-12-24T18:40:20.648Z,98214.00
2022-12-24T18:45:22.502Z,98215.94
2022-12-24T18:50:24.349Z,98219.63
2022-12-24T18:55:26.216Z,98229.97
2022-12-24T19:00:28.137Z,98224.81
2022-12-24T19:05:31.001Z,98228.19
2022-12-24T19:10:32.788Z,98225.63
2022-12-24T19:15:36.114Z,98239.50
2022-12-24T19:20:39.816Z,98252.75
2022-12-24T19:25:41.677Z,98254.38
2022-12-24T19:30:43.494Z,98256.28
2022-12-24T19:35:45.371Z,98260.66
2022-12-24T19:40:47.205Z,98270.31
2022-12-24T19:45:49.074Z,98272.25
2022-12-24T19:50:51.093Z,98271.59
2022-12-24T19:55:52.833Z,98270.78
2022-12-24T20:00:55.579Z,98277.72
2022-12-24T20:05:57.354Z,98282.06
2022-12-24T20:10:59.157Z,98296.78
2022-12-24T20:16:13.330Z,98301.13
2022-12-24T20:21:15.112Z,98304.69
2022-12-24T20:26:19.760Z,98314.22
2022-12-24T20:31:28.135Z,98304.81
2022-12-24T20:36:31.757Z,98300.63
2022-12-24T20:41:34.127Z,98309.59
2022-12-24T20:46:36.033Z,98321.19
2022-12-24T20:51:37.968Z,98320.53
2022-12-24T20:56:40.668Z,98322.44
2022-12-24T21:01:42.600Z,98327.09
2022-12-24T21:06:44.720Z,98318.13
2022-12-24T21:11:52.371Z,98328.09
2022-12-24T21:16:57.241Z,98330.31
2022-12-24T21:21:59.164Z,98330.75
2022-12-24T21:27:01.732Z,98345.03
2022-12-24T21:32:03.541Z,98350.34
2022-12-24T21:37:05.376Z,98344.81
2022-12-24T21:42:07.266Z,98340.34
2022-12-24T21:47:10.044Z,98351.41
2022-12-24T21:52:11.856Z,98349.38
2022-12-24T21:57:32.151Z,98359.84
2022-12-24T22:02:34.208Z,98360.81
2022-12-24T22:07:55.031Z,98373.84
2022-12-24T22:13:06.292Z,98377.41
2022-12-24T22:18:08.295Z,98375.63
2022-12-24T22:23:11.555Z,98386.09
2022-12-24T22:28:13.609Z,98383.78
2022-12-24T22:33:15.520Z,98397.66
2022-12-24T22:38:17.638Z,98400.66
2022-12-24T22:43:19.480Z,98406.09
2022-12-24T22:48:21.227Z,98416.44
2022-12-24T22:53:23.146Z,98410.59
2022-12-24T22:58:28.329Z,98416.03
2022-12-24T23:03:30.668Z,98429.06
2022-12-24T23:08:35.755Z,98436.97
2022-12-24T23:13:58.372Z,98440.63
2022-12-24T23:19:02.785Z,98432.75
2022-12-24T23:24:05.028Z,98449.19
2022-12-24T23:29:06.881Z,98459.78
2022-12-24T23:34:08.769Z,98451.34
2022-12-24T23:39:13.758Z,98448.06
2022-12-24T23:44:15.711Z,98445.88
2022-12-24T23:49:17.451Z,98457.56
2022-12-24T23:54:19.446Z,98464.06
2022-12-24T23:59:21.299Z,98465.41
